Terminal Aerodrome Forecast
Issued by NWS

Home | Current Version | Previous Version | Text Only | Print | Product List | Glossary On
Versions: 1 2 3 4 5 6 7 8 9 10 11 12 13 14 15
000
FTUS45 KTFX 291740
TAFCTB
TAF
KCTB 291740Z 2918/3018 25014G25KT P6SM FEW070 SCT120
     FM300200 24010KT P6SM BKN100
     FM300800 30014G22KT P6SM BKN080
     FM301400 31019G29KT P6SM -SHRA BKN030 OVC050=

USA.gov is the U.S. government's official web portal to all federal, state and local government web resources and services.